sensor_id;sensor_type;location;lat;lon;timestamp;pressure;altitude;pressure_sealevel;temperature;humidity
56182;BME280;51963;46.052;14.544;2022-11-24T00:00:33;97388.59;;;2.74;100.00
56182;BME280;51963;46.052;14.544;2022-11-24T00:02:59;97380.06;;;2.63;100.00
56182;BME280;51963;46.052;14.544;2022-11-24T00:05:25;97380.56;;;2.59;100.00
56182;BME280;51963;46.052;14.544;2022-11-24T00:07:51;97374.03;;;2.55;100.00
56182;BME280;51963;46.052;14.544;2022-11-24T00:10:16;97374.03;;;2.55;100.00
56182;BME280;51963;46.052;14.544;2022-11-24T00:12:42;97378.59;;;2.53;100.00
56182;BME280;51963;46.052;14.544;2022-11-24T00:15:08;97382.31;;;2.50;100.00
56182;BME280;51963;46.052;14.544;2022-11-24T00:17:34;97373.38;;;2.44;100.00
56182;BME280;51963;46.052;14.544;2022-11-24T00:19:59;97384.91;;;2.42;100.00
56182;BME280;51963;46.052;14.544;2022-11-24T00:22:25;97381.19;;;2.36;100.00
56182;BME280;51963;46.052;14.544;2022-11-24T00:24:50;97386.53;;;2.34;100.00
56182;BME280;51963;46.052;14.544;2022-11-24T00:27:16;97391.94;;;2.33;100.00
56182;BME280;51963;46.052;14.544;2022-11-24T00:29:42;97394.31;;;2.18;100.00
56182;BME280;51963;46.052;14.544;2022-11-24T00:32:07;97388.00;;;2.29;100.00
56182;BME280;51963;46.052;14.544;2022-11-24T00:34:33;97393.88;;;2.31;100.00
56182;BME280;51963;46.052;14.544;2022-11-24T00:36:59;97382.44;;;2.24;100.00
56182;BME280;51963;46.052;14.544;2022-11-24T00:39:24;97384.06;;;2.25;100.00
56182;BME280;51963;46.052;14.544;2022-11-24T00:41:50;97387.47;;;2.17;100.00
56182;BME280;51963;46.052;14.544;2022-11-24T00:44:16;97384.38;;;2.13;100.00
56182;BME280;51963;46.052;14.544;2022-11-24T00:46:41;97389.97;;;2.35;100.00
56182;BME280;51963;46.052;14.544;2022-11-24T00:49:07;97394.88;;;2.38;100.00
56182;BME280;51963;46.052;14.544;2022-11-24T00:51:33;97395.22;;;2.43;100.00
56182;BME280;51963;46.052;14.544;2022-11-24T00:53:59;97396.16;;;2.34;100.00
56182;BME280;51963;46.052;14.544;2022-11-24T00:56:26;97404.63;;;2.28;100.00
56182;BME280;51963;46.052;14.544;2022-11-24T00:58:53;97409.94;;;2.61;100.00
56182;BME280;51963;46.052;14.544;2022-11-24T01:01:24;97409.06;;;2.52;100.00
56182;BME280;51963;46.052;14.544;2022-11-24T01:03:50;97421.28;;;2.35;100.00
56182;BME280;51963;46.052;14.544;2022-11-24T01:06:22;97424.22;;;2.32;100.00
56182;BME280;51963;46.052;14.544;2022-11-24T01:08:48;97429.88;;;2.27;100.00
56182;BME280;51963;46.052;14.544;2022-11-24T01:11:20;97429.91;;;2.35;100.00
56182;BME280;51963;46.052;14.544;2022-11-24T01:13:49;97436.66;;;2.55;100.00
56182;BME280;51963;46.052;14.544;2022-11-24T01:18:46;97435.97;;;2.44;100.00
56182;BME280;51963;46.052;14.544;2022-11-24T01:21:13;97445.25;;;2.39;100.00
56182;BME280;51963;46.052;14.544;2022-11-24T01:23:39;97447.72;;;2.40;100.00
56182;BME280;51963;46.052;14.544;2022-11-24T01:26:06;97442.56;;;2.73;100.00
56182;BME280;51963;46.052;14.544;2022-11-24T01:28:33;97449.13;;;2.86;100.00
56182;BME280;51963;46.052;14.544;2022-11-24T01:31:00;97450.75;;;2.78;100.00
56182;BME280;51963;46.052;14.544;2022-11-24T01:33:26;97447.16;;;2.79;100.00
56182;BME280;51963;46.052;14.544;2022-11-24T01:35:52;97457.94;;;2.85;100.00
56182;BME280;51963;46.052;14.544;2022-11-24T01:38:18;97455.66;;;2.90;100.00
56182;BME280;51963;46.052;14.544;2022-11-24T01:40:44;97453.84;;;2.82;100.00
56182;BME280;51963;46.052;14.544;2022-11-24T01:43:20;97460.88;;;2.90;100.00
56182;BME280;51963;46.052;14.544;2022-11-24T01:45:46;97463.97;;;2.85;100.00
56182;BME280;51963;46.052;14.544;2022-11-24T01:48:19;97465.44;;;2.88;100.00
56182;BME280;51963;46.052;14.544;2022-11-24T01:50:53;97456.63;;;2.81;100.00
56182;BME280;51963;46.052;14.544;2022-11-24T01:53:21;97472.63;;;2.94;100.00
56182;BME280;51963;46.052;14.544;2022-11-24T01:55:49;97487.69;;;3.25;100.00
56182;BME280;51963;46.052;14.544;2022-11-24T01:58:21;97485.38;;;3.22;100.00
56182;BME280;51963;46.052;14.544;2022-11-24T02:00:48;97493.41;;;3.20;100.00
56182;BME280;51963;46.052;14.544;2022-11-24T02:03:19;97488.34;;;3.44;100.00
56182;BME280;51963;46.052;14.544;2022-11-24T02:05:58;97487.19;;;3.46;100.00
56182;BME280;51963;46.052;14.544;2022-11-24T02:08:31;97496.50;;;3.57;100.00
56182;BME280;51963;46.052;14.544;2022-11-24T02:11:01;97492.56;;;3.53;100.00
56182;BME280;51963;46.052;14.544;2022-11-24T02:13:28;97501.91;;;3.56;100.00
56182;BME280;51963;46.052;14.544;2022-11-24T02:15:54;97492.09;;;3.49;100.00
56182;BME280;51963;46.052;14.544;2022-11-24T02:18:19;97491.59;;;3.46;100.00
56182;BME280;51963;46.052;14.544;2022-11-24T02:20:45;97484.75;;;3.28;100.00
56182;BME280;51963;46.052;14.544;2022-11-24T02:23:21;97479.50;;;3.12;100.00
56182;BME280;51963;46.052;14.544;2022-11-24T02:26:05;97500.41;;;3.28;100.00
56182;BME280;51963;46.052;14.544;2022-11-24T02:28:34;97501.72;;;3.24;100.00
56182;BME280;51963;46.052;14.544;2022-11-24T02:30:59;97506.28;;;3.14;100.00
56182;BME280;51963;46.052;14.544;2022-11-24T02:33:26;97509.22;;;3.11;100.00
56182;BME280;51963;46.052;14.544;2022-11-24T02:35:52;97505.31;;;3.23;100.00
56182;BME280;51963;46.052;14.544;2022-11-24T02:38:18;97510.22;;;3.34;100.00
56182;BME280;51963;46.052;14.544;2022-11-24T02:40:53;97509.41;;;3.34;100.00
56182;BME280;51963;46.052;14.544;2022-11-24T02:43:20;97513.00;;;3.33;100.00
56182;BME280;51963;46.052;14.544;2022-11-24T02:45:47;97514.78;;;3.32;100.00
56182;BME280;51963;46.052;14.544;2022-11-24T02:48:16;97514.75;;;3.07;100.00
56182;BME280;51963;46.052;14.544;2022-11-24T02:50:42;97517.38;;;3.24;100.00
56182;BME280;51963;46.052;14.544;2022-11-24T02:53:07;97513.97;;;3.23;100.00
56182;BME280;51963;46.052;14.544;2022-11-24T02:55:33;97507.59;;;3.18;100.00
56182;BME280;51963;46.052;14.544;2022-11-24T02:57:59;97501.72;;;3.24;100.00
56182;BME280;51963;46.052;14.544;2022-11-24T03:00:24;97509.88;;;3.21;100.00
56182;BME280;51963;46.052;14.544;2022-11-24T03:02:50;97525.25;;;3.41;100.00
56182;BME280;51963;46.052;14.544;2022-11-24T03:05:16;97527.53;;;3.35;100.00
56182;BME280;51963;46.052;14.544;2022-11-24T03:07:42;97522.94;;;3.37;100.00
56182;BME280;51963;46.052;14.544;2022-11-24T03:10:08;97539.78;;;3.43;100.00
56182;BME280;51963;46.052;14.544;2022-11-24T03:12:33;97549.94;;;3.46;100.00
56182;BME280;51963;46.052;14.544;2022-11-24T03:14:59;97539.63;;;3.36;100.00
56182;BME280;51963;46.052;14.544;2022-11-24T03:17:25;97547.44;;;3.28;100.00
56182;BME280;51963;46.052;14.544;2022-11-24T03:19:50;97549.69;;;3.06;100.00
56182;BME280;51963;46.052;14.544;2022-11-24T03:22:16;97551.63;;;3.04;100.00
56182;BME280;51963;46.052;14.544;2022-11-24T03:24:41;97553.63;;;3.11;100.00
56182;BME280;51963;46.052;14.544;2022-11-24T03:27:07;97565.03;;;3.10;100.00
56182;BME280;51963;46.052;14.544;2022-11-24T03:29:33;97574.53;;;3.27;100.00
56182;BME280;51963;46.052;14.544;2022-11-24T03:31:58;97562.00;;;3.39;100.00
56182;BME280;51963;46.052;14.544;2022-11-24T03:34:24;97565.28;;;3.58;100.00
56182;BME280;51963;46.052;14.544;2022-11-24T03:36:50;97561.84;;;3.57;100.00
56182;BME280;51963;46.052;14.544;2022-11-24T03:39:15;97566.38;;;3.30;100.00
56182;BME280;51963;46.052;14.544;2022-11-24T03:41:41;97558.91;;;3.60;100.00
56182;BME280;51963;46.052;14.544;2022-11-24T03:44:07;97571.50;;;3.73;100.00
56182;BME280;51963;46.052;14.544;2022-11-24T03:46:32;97572.94;;;3.51;100.00
56182;BME280;51963;46.052;14.544;2022-11-24T03:48:58;97583.41;;;3.67;100.00
56182;BME280;51963;46.052;14.544;2022-11-24T03:51:24;97588.63;;;3.59;100.00
56182;BME280;51963;46.052;14.544;2022-11-24T03:53:49;97585.34;;;3.41;100.00
56182;BME280;51963;46.052;14.544;2022-11-24T03:56:15;97586.44;;;3.05;100.00
56182;BME280;51963;46.052;14.544;2022-11-24T03:58:41;97589.31;;;2.93;100.00
56182;BME280;51963;46.052;14.544;2022-11-24T04:01:06;97598.72;;;2.78;100.00
56182;BME280;51963;46.052;14.544;2022-11-24T04:03:32;97601.00;;;2.73;100.00
56182;BME280;51963;46.052;14.544;2022-11-24T04:05:58;97605.81;;;3.02;100.00
56182;BME280;51963;46.052;14.544;2022-11-24T04:08:24;97607.88;;;3.33;100.00
56182;BME280;51963;46.052;14.544;2022-11-24T04:10:51;97615.72;;;3.33;100.00
56182;BME280;51963;46.052;14.544;2022-11-24T04:13:19;97613.72;;;3.27;100.00
56182;BME280;51963;46.052;14.544;2022-11-24T04:15:45;97611.09;;;3.19;100.00
56182;BME280;51963;46.052;14.544;2022-11-24T04:18:11;97603.81;;;2.88;100.00
56182;BME280;51963;46.052;14.544;2022-11-24T04:20:38;97611.47;;;2.81;100.00
56182;BME280;51963;46.052;14.544;2022-11-24T04:23:04;97617.47;;;3.16;100.00
56182;BME280;51963;46.052;14.544;2022-11-24T04:25:30;97632.91;;;3.44;100.00
56182;BME280;51963;46.052;14.544;2022-11-24T04:27:59;97633.56;;;3.55;100.00
56182;BME280;51963;46.052;14.544;2022-11-24T04:30:26;97642.88;;;3.57;100.00
56182;BME280;51963;46.052;14.544;2022-11-24T04:32:52;97650.72;;;3.57;100.00
56182;BME280;51963;46.052;14.544;2022-11-24T04:35:20;97655.63;;;3.60;100.00
56182;BME280;51963;46.052;14.544;2022-11-24T04:37:46;97665.06;;;3.45;100.00
56182;BME280;51963;46.052;14.544;2022-11-24T04:40:13;97655.72;;;3.34;100.00
56182;BME280;51963;46.052;14.544;2022-11-24T04:42:39;97648.94;;;3.06;100.00
56182;BME280;51963;46.052;14.544;2022-11-24T04:45:05;97643.81;;;3.40;100.00
56182;BME280;51963;46.052;14.544;2022-11-24T04:47:31;97657.22;;;3.45;100.00
56182;BME280;51963;46.052;14.544;2022-11-24T04:49:57;97648.25;;;3.47;100.00
56182;BME280;51963;46.052;14.544;2022-11-24T04:52:24;97667.38;;;3.56;100.00
56182;BME280;51963;46.052;14.544;2022-11-24T04:54:50;97673.22;;;3.50;100.00
56182;BME280;51963;46.052;14.544;2022-11-24T04:57:21;97668.94;;;3.32;100.00
56182;BME280;51963;46.052;14.544;2022-11-24T04:59:48;97665.72;;;3.47;100.00
56182;BME280;51963;46.052;14.544;2022-11-24T05:02:14;97656.91;;;3.48;100.00
56182;BME280;51963;46.052;14.544;2022-11-24T05:04:40;97646.44;;;3.40;100.00
56182;BME280;51963;46.052;14.544;2022-11-24T05:07:06;97662.78;;;3.50;100.00
56182;BME280;51963;46.052;14.544;2022-11-24T05:09:32;97667.91;;;3.76;100.00
56182;BME280;51963;46.052;14.544;2022-11-24T05:11:57;97672.47;;;3.66;100.00
56182;BME280;51963;46.052;14.544;2022-11-24T05:14:23;97665.75;;;3.63;100.00
56182;BME280;51963;46.052;14.544;2022-11-24T05:16:50;97664.06;;;3.46;100.00
56182;BME280;51963;46.052;14.544;2022-11-24T05:19:15;97662.41;;;3.28;100.00
56182;BME280;51963;46.052;14.544;2022-11-24T05:21:42;97660.75;;;3.27;100.00
56182;BME280;51963;46.052;14.544;2022-11-24T05:24:09;97666.66;;;3.37;100.00
56182;BME280;51963;46.052;14.544;2022-11-24T05:26:35;97674.25;;;3.65;100.00
56182;BME280;51963;46.052;14.544;2022-11-24T05:29:00;97674.56;;;3.62;100.00
56182;BME280;51963;46.052;14.544;2022-11-24T05:31:26;97679.13;;;3.60;100.00
56182;BME280;51963;46.052;14.544;2022-11-24T05:33:51;97687.91;;;3.43;100.00
56182;BME280;51963;46.052;14.544;2022-11-24T05:36:17;97690.75;;;3.58;100.00
56182;BME280;51963;46.052;14.544;2022-11-24T05:39:01;97706.06;;;3.44;100.00
56182;BME280;51963;46.052;14.544;2022-11-24T05:41:27;97703.00;;;3.65;100.00
56182;BME280;51963;46.052;14.544;2022-11-24T05:43:52;97714.56;;;3.46;100.00
56182;BME280;51963;46.052;14.544;2022-11-24T05:46:18;97714.47;;;3.21;100.00
56182;BME280;51963;46.052;14.544;2022-11-24T05:48:46;97710.38;;;3.19;100.00
56182;BME280;51963;46.052;14.544;2022-11-24T05:51:12;97718.88;;;3.64;100.00
56182;BME280;51963;46.052;14.544;2022-11-24T05:53:38;97725.47;;;3.42;100.00
56182;BME280;51963;46.052;14.544;2022-11-24T05:56:04;97728.38;;;3.30;100.00
56182;BME280;51963;46.052;14.544;2022-11-24T05:58:29;97735.63;;;3.45;100.00
56182;BME280;51963;46.052;14.544;2022-11-24T06:00:55;97733.97;;;3.44;100.00
56182;BME280;51963;46.052;14.544;2022-11-24T06:03:21;97727.09;;;3.34;100.00
56182;BME280;51963;46.052;14.544;2022-11-24T06:05:47;97731.66;;;3.32;100.00
56182;BME280;51963;46.052;14.544;2022-11-24T06:08:13;97728.50;;;3.20;100.00
56182;BME280;51963;46.052;14.544;2022-11-24T06:10:38;97730.31;;;3.28;100.00
56182;BME280;51963;46.052;14.544;2022-11-24T06:13:05;97739.13;;;3.27;100.00
56182;BME280;51963;46.052;14.544;2022-11-24T06:15:32;97738.44;;;3.17;100.00
56182;BME280;51963;46.052;14.544;2022-11-24T06:17:57;97745.78;;;3.13;100.00
56182;BME280;51963;46.052;14.544;2022-11-24T06:20:23;97738.97;;;2.94;100.00
56182;BME280;51963;46.052;14.544;2022-11-24T06:22:49;97750.78;;;3.06;100.00
56182;BME280;51963;46.052;14.544;2022-11-24T06:25:15;97739.59;;;2.88;100.00
56182;BME280;51963;46.052;14.544;2022-11-24T06:27:42;97759.16;;;2.84;100.00
56182;BME280;51963;46.052;14.544;2022-11-24T06:30:08;97771.63;;;2.98;100.00
56182;BME280;51963;46.052;14.544;2022-11-24T06:32:34;97770.41;;;3.11;100.00
56182;BME280;51963;46.052;14.544;2022-11-24T06:35:00;97766.28;;;3.00;100.00
56182;BME280;51963;46.052;14.544;2022-11-24T06:37:26;97762.84;;;2.99;100.00
56182;BME280;51963;46.052;14.544;2022-11-24T06:39:51;97756.81;;;2.99;100.00
56182;BME280;51963;46.052;14.544;2022-11-24T06:42:17;97760.94;;;2.83;100.00
56182;BME280;51963;46.052;14.544;2022-11-24T06:44:46;97760.13;;;2.64;100.00
56182;BME280;51963;46.052;14.544;2022-11-24T06:47:13;97770.63;;;2.91;100.00
56182;BME280;51963;46.052;14.544;2022-11-24T06:49:39;97775.53;;;2.94;100.00
56182;BME280;51963;46.052;14.544;2022-11-24T06:52:04;97783.72;;;2.73;100.00
56182;BME280;51963;46.052;14.544;2022-11-24T06:54:30;97772.63;;;2.53;100.00
56182;BME280;51963;46.052;14.544;2022-11-24T06:56:57;97788.59;;;2.94;100.00
56182;BME280;51963;46.052;14.544;2022-11-24T06:59:23;97785.00;;;2.95;100.00
56182;BME280;51963;46.052;14.544;2022-11-24T07:01:48;97787.06;;;2.83;100.00
56182;BME280;51963;46.052;14.544;2022-11-24T07:04:14;97811.41;;;2.92;100.00
56182;BME280;51963;46.052;14.544;2022-11-24T07:06:40;97808.75;;;2.84;100.00
56182;BME280;51963;46.052;14.544;2022-11-24T07:09:10;97797.63;;;2.82;100.00
56182;BME280;51963;46.052;14.544;2022-11-24T07:11:36;97811.06;;;2.87;100.00
56182;BME280;51963;46.052;14.544;2022-11-24T07:14:03;97817.38;;;3.02;100.00
56182;BME280;51963;46.052;14.544;2022-11-24T07:16:29;97828.22;;;2.89;100.00
56182;BME280;51963;46.052;14.544;2022-11-24T07:18:55;97827.75;;;2.94;100.00
56182;BME280;51963;46.052;14.544;2022-11-24T07:21:23;97825.38;;;2.83;100.00
56182;BME280;51963;46.052;14.544;2022-11-24T07:23:54;97832.91;;;2.86;100.00
56182;BME280;51963;46.052;14.544;2022-11-24T07:26:21;97835.22;;;2.89;100.00
56182;BME280;51963;46.052;14.544;2022-11-24T07:28:47;97846.81;;;2.86;100.00
56182;BME280;51963;46.052;14.544;2022-11-24T07:31:16;97838.91;;;2.78;100.00
56182;BME280;51963;46.052;14.544;2022-11-24T07:33:50;97837.94;;;2.61;100.00
56182;BME280;51963;46.052;14.544;2022-11-24T07:36:17;97843.16;;;2.61;100.00
56182;BME280;51963;46.052;14.544;2022-11-24T07:38:42;97854.88;;;2.57;100.00
56182;BME280;51963;46.052;14.544;2022-11-24T07:41:11;97848.91;;;2.46;100.00
56182;BME280;51963;46.052;14.544;2022-11-24T07:43:38;97854.81;;;2.67;100.00
56182;BME280;51963;46.052;14.544;2022-11-24T07:46:05;97856.50;;;2.76;100.00
56182;BME280;51963;46.052;14.544;2022-11-24T07:48:31;97861.75;;;3.02;100.00
56182;BME280;51963;46.052;14.544;2022-11-24T07:51:01;97868.38;;;3.15;100.00
56182;BME280;51963;46.052;14.544;2022-11-24T07:53:27;97864.50;;;3.19;100.00
56182;BME280;51963;46.052;14.544;2022-11-24T07:55:54;97872.34;;;3.19;100.00
56182;BME280;51963;46.052;14.544;2022-11-24T07:58:21;97872.50;;;3.17;100.00
56182;BME280;51963;46.052;14.544;2022-11-24T08:00:49;97864.56;;;3.27;100.00
56182;BME280;51963;46.052;14.544;2022-11-24T08:03:16;97873.78;;;3.40;100.00
56182;BME280;51963;46.052;14.544;2022-11-24T08:05:42;97874.59;;;3.14;100.00
56182;BME280;51963;46.052;14.544;2022-11-24T08:08:07;97887.88;;;3.02;100.00
56182;BME280;51963;46.052;14.544;2022-11-24T08:10:33;97880.94;;;3.11;100.00
56182;BME280;51963;46.052;14.544;2022-11-24T08:13:00;97883.19;;;3.32;100.00
56182;BME280;51963;46.052;14.544;2022-11-24T08:15:26;97881.38;;;3.25;100.00
56182;BME280;51963;46.052;14.544;2022-11-24T08:17:51;97892.84;;;3.58;100.00
56182;BME280;51963;46.052;14.544;2022-11-24T08:20:17;97885.66;;;3.60;100.00
56182;BME280;51963;46.052;14.544;2022-11-24T08:22:43;97881.13;;;3.71;100.00
56182;BME280;51963;46.052;14.544;2022-11-24T08:25:09;97883.91;;;3.43;100.00
56182;BME280;51963;46.052;14.544;2022-11-24T08:27:35;97888.22;;;3.52;100.00
56182;BME280;51963;46.052;14.544;2022-11-24T08:30:01;97890.53;;;3.55;100.00
56182;BME280;51963;46.052;14.544;2022-11-24T08:32:26;97888.72;;;3.29;100.00
56182;BME280;51963;46.052;14.544;2022-11-24T08:34:52;97901.91;;;3.72;100.00
56182;BME280;51963;46.052;14.544;2022-11-24T08:37:18;97905.34;;;3.73;100.00
56182;BME280;51963;46.052;14.544;2022-11-24T08:39:44;97908.13;;;3.71;100.00
56182;BME280;51963;46.052;14.544;2022-11-24T08:42:10;97917.34;;;3.84;100.00
56182;BME280;51963;46.052;14.544;2022-11-24T08:44:35;97911.31;;;3.57;100.00
56182;BME280;51963;46.052;14.544;2022-11-24T08:47:01;97911.41;;;3.73;100.00
56182;BME280;51963;46.052;14.544;2022-11-24T08:49:27;97913.22;;;3.81;100.00
56182;BME280;51963;46.052;14.544;2022-11-24T08:51:56;97912.50;;;3.97;100.00
56182;BME280;51963;46.052;14.544;2022-11-24T08:54:21;97915.94;;;4.06;100.00
56182;BME280;51963;46.052;14.544;2022-11-24T08:56:48;97917.72;;;3.97;100.00
56182;BME280;51963;46.052;14.544;2022-11-24T08:59:13;97913.78;;;3.66;100.00
56182;BME280;51963;46.052;14.544;2022-11-24T09:01:58;97930.72;;;3.80;100.00
56182;BME280;51963;46.052;14.544;2022-11-24T09:05:15;97933.50;;;3.34;100.00
56182;BME280;51963;46.052;14.544;2022-11-24T09:07:40;97933.16;;;3.29;100.00
56182;BME280;51963;46.052;14.544;2022-11-24T09:10:07;97929.22;;;3.78;100.00
56182;BME280;51963;46.052;14.544;2022-11-24T09:12:35;97930.25;;;3.85;100.00
56182;BME280;51963;46.052;14.544;2022-11-24T09:15:01;97931.28;;;4.01;100.00
56182;BME280;51963;46.052;14.544;2022-11-24T09:17:26;97933.81;;;4.10;100.00
56182;BME280;51963;46.052;14.544;2022-11-24T09:19:52;97940.38;;;4.15;100.00
56182;BME280;51963;46.052;14.544;2022-11-24T09:22:17;97927.25;;;4.06;100.00
56182;BME280;51963;46.052;14.544;2022-11-24T09:24:43;97936.47;;;4.19;100.00
56182;BME280;51963;46.052;14.544;2022-11-24T09:27:09;97936.56;;;4.09;100.00
56182;BME280;51963;46.052;14.544;2022-11-24T09:29:34;97935.31;;;4.21;100.00
56182;BME280;51963;46.052;14.544;2022-11-24T09:32:01;97937.44;;;4.18;100.00
56182;BME280;51963;46.052;14.544;2022-11-24T09:34:27;97938.09;;;4.20;100.00
56182;BME280;51963;46.052;14.544;2022-11-24T09:36:52;97940.56;;;4.30;100.00
56182;BME280;51963;46.052;14.544;2022-11-24T09:39:18;97929.00;;;4.40;100.00
56182;BME280;51963;46.052;14.544;2022-11-24T09:42:06;97945.19;;;4.36;100.00
56182;BME280;51963;46.052;14.544;2022-11-24T09:45:08;97945.88;;;4.54;100.00
56182;BME280;51963;46.052;14.544;2022-11-24T09:48:41;97946.22;;;4.60;100.00
56182;BME280;51963;46.052;14.544;2022-11-24T09:50:43;97942.56;;;4.36;100.00
56182;BME280;51963;46.052;14.544;2022-11-24T09:56:02;97959.28;;;4.51;100.00
56182;BME280;51963;46.052;14.544;2022-11-24T10:01:00;97951.47;;;4.60;100.00
56182;BME280;51963;46.052;14.544;2022-11-24T10:03:38;97955.59;;;4.70;100.00
56182;BME280;51963;46.052;14.544;2022-11-24T10:06:25;97962.31;;;4.81;100.00
56182;BME280;51963;46.052;14.544;2022-11-24T10:11:46;97936.97;;;4.90;100.00
56182;BME280;51963;46.052;14.544;2022-11-24T10:19:48;97961.34;;;4.91;100.00
56182;BME280;51963;46.052;14.544;2022-11-24T10:25:06;97974.47;;;5.16;100.00
56182;BME280;51963;46.052;14.544;2022-11-24T10:27:39;97957.63;;;5.02;100.00
56182;BME280;51963;46.052;14.544;2022-11-24T10:30:16;97957.63;;;4.42;100.00
56182;BME280;51963;46.052;14.544;2022-11-24T10:32:46;97960.28;;;4.07;100.00
56182;BME280;51963;46.052;14.544;2022-11-24T10:35:27;97969.25;;;4.39;100.00
56182;BME280;51963;46.052;14.544;2022-11-24T10:40:56;97968.59;;;4.03;100.00
56182;BME280;51963;46.052;14.544;2022-11-24T10:43:25;97969.72;;;4.35;100.00
56182;BME280;51963;46.052;14.544;2022-11-24T10:45:54;97968.25;;;4.32;100.00
56182;BME280;51963;46.052;14.544;2022-11-24T10:48:25;97967.53;;;4.73;100.00
56182;BME280;51963;46.052;14.544;2022-11-24T10:50:52;97969.53;;;4.96;100.00
56182;BME280;51963;46.052;14.544;2022-11-24T10:53:28;97968.66;;;4.62;100.00
56182;BME280;51963;46.052;14.544;2022-11-24T10:58:34;97973.66;;;4.39;100.00
56182;BME280;51963;46.052;14.544;2022-11-24T11:01:18;97972.25;;;4.18;100.00
56182;BME280;51963;46.052;14.544;2022-11-24T11:03:46;97973.72;;;4.55;100.00
56182;BME280;51963;46.052;14.544;2022-11-24T11:06:19;97958.69;;;4.74;100.00
56182;BME280;51963;46.052;14.544;2022-11-24T11:08:45;97967.44;;;4.91;100.00
56182;BME280;51963;46.052;14.544;2022-11-24T11:11:15;97966.94;;;5.04;100.00
56182;BME280;51963;46.052;14.544;2022-11-24T11:14:02;97972.16;;;4.88;100.00
56182;BME280;51963;46.052;14.544;2022-11-24T11:19:34;97974.06;;;4.69;100.00
56182;BME280;51963;46.052;14.544;2022-11-24T11:24:26;97967.63;;;5.31;100.00
56182;BME280;51963;46.052;14.544;2022-11-24T11:27:15;97958.09;;;4.97;100.00
56182;BME280;51963;46.052;14.544;2022-11-24T11:29:42;97973.00;;;5.05;100.00
56182;BME280;51963;46.052;14.544;2022-11-24T11:32:21;97974.78;;;4.96;100.00
56182;BME280;51963;46.052;14.544;2022-11-24T11:34:48;97987.78;;;5.31;100.00
56182;BME280;51963;46.052;14.544;2022-11-24T11:37:15;97981.88;;;5.20;100.00
56182;BME280;51963;46.052;14.544;2022-11-24T11:39:45;97977.75;;;5.18;100.00
56182;BME280;51963;46.052;14.544;2022-11-24T11:47:35;97980.41;;;5.42;100.00
56182;BME280;51963;46.052;14.544;2022-11-24T11:50:11;97984.66;;;5.68;100.00
56182;BME280;51963;46.052;14.544;2022-11-24T12:00:23;97983.31;;;5.14;100.00
56182;BME280;51963;46.052;14.544;2022-11-24T12:08:21;97976.97;;;5.50;100.00
56182;BME280;51963;46.052;14.544;2022-11-24T12:11:06;97969.28;;;5.49;100.00
56182;BME280;51963;46.052;14.544;2022-11-24T12:16:42;97958.78;;;5.40;100.00
56182;BME280;51963;46.052;14.544;2022-11-24T12:22:02;97964.34;;;5.62;100.00
56182;BME280;51963;46.052;14.544;2022-11-24T12:27:03;97963.06;;;5.41;100.00
56182;BME280;51963;46.052;14.544;2022-11-24T12:29:50;97955.53;;;5.30;100.00
56182;BME280;51963;46.052;14.544;2022-11-24T12:43:35;97954.16;;;5.76;100.00
56182;BME280;51963;46.052;14.544;2022-11-24T12:46:16;97939.44;;;5.50;100.00
56182;BME280;51963;46.052;14.544;2022-11-24T12:51:30;97954.25;;;6.07;100.00
56182;BME280;51963;46.052;14.544;2022-11-24T12:53:58;97953.91;;;6.19;100.00
56182;BME280;51963;46.052;14.544;2022-11-24T13:02:03;97952.75;;;6.21;100.00
56182;BME280;51963;46.052;14.544;2022-11-24T13:04:46;97940.34;;;9.62;100.00
56182;BME280;51963;46.052;14.544;2022-11-24T13:07:32;97943.38;;;10.29;100.00
56182;BME280;51963;46.052;14.544;2022-11-24T13:15:19;97942.31;;;12.40;83.22
56182;BME280;51963;46.052;14.544;2022-11-24T13:17:45;97944.91;;;12.54;84.93
56182;BME280;51963;46.052;14.544;2022-11-24T13:22:51;97935.56;;;12.83;81.60
56182;BME280;51963;46.052;14.544;2022-11-24T13:25:21;97936.50;;;12.64;80.63
56182;BME280;51963;46.052;14.544;2022-11-24T13:28:02;97942.81;;;12.03;80.56
56182;BME280;51963;46.052;14.544;2022-11-24T13:35:38;97940.22;;;11.23;86.88
56182;BME280;51963;46.052;14.544;2022-11-24T13:41:08;97936.31;;;10.98;87.18
56182;BME280;51963;46.052;14.544;2022-11-24T13:47:01;97942.88;;;10.12;94.28
56182;BME280;51963;46.052;14.544;2022-11-24T13:49:42;97941.22;;;11.35;85.63
56182;BME280;51963;46.052;14.544;2022-11-24T13:55:19;97941.22;;;11.82;81.29
56182;BME280;51963;46.052;14.544;2022-11-24T13:58:33;97937.94;;;12.00;83.64
56182;BME280;51963;46.052;14.544;2022-11-24T14:01:06;97939.91;;;13.10;77.25
56182;BME280;51963;46.052;14.544;2022-11-24T14:06:04;97948.22;;;13.52;74.25
56182;BME280;51963;46.052;14.544;2022-11-24T14:08:32;97943.66;;;13.59;73.80
56182;BME280;51963;46.052;14.544;2022-11-24T14:11:00;97942.53;;;13.92;72.72
56182;BME280;51963;46.052;14.544;2022-11-24T14:13:28;97950.06;;;13.52;73.80
56182;BME280;51963;46.052;14.544;2022-11-24T14:16:12;97947.09;;;13.02;76.40
56182;BME280;51963;46.052;14.544;2022-11-24T14:18:51;97946.06;;;13.35;74.12
56182;BME280;51963;46.052;14.544;2022-11-24T14:21:33;97950.09;;;12.81;77.08
56182;BME280;51963;46.052;14.544;2022-11-24T14:24:22;97958.25;;;13.11;76.53
56182;BME280;51963;46.052;14.544;2022-11-24T14:26:48;97958.91;;;12.74;76.26
56182;BME280;51963;46.052;14.544;2022-11-24T14:29:22;97963.41;;;12.67;76.34
56182;BME280;51963;46.052;14.544;2022-11-24T14:31:56;97959.38;;;12.58;77.09
56182;BME280;51963;46.052;14.544;2022-11-24T14:34:25;97956.50;;;11.13;82.79
56182;BME280;51963;46.052;14.544;2022-11-24T14:36:56;97958.66;;;10.76;84.29
56182;BME280;51963;46.052;14.544;2022-11-24T14:39:25;97957.97;;;10.25;87.86